createdAt,value
2023-02-19T00:01:59.436Z,1.43
2023-02-19T00:04:27.661Z,1.30
2023-02-19T00:06:55.951Z,1.70
2023-02-19T00:09:24.362Z,1.30
2023-02-19T00:11:52.738Z,1.70
2023-02-19T00:14:23.230Z,1.30
2023-02-19T00:16:53.993Z,1.47
2023-02-19T00:19:23.310Z,2.33
2023-02-19T00:21:53.802Z,2.30
2023-02-19T00:24:23.121Z,1.90
2023-02-19T00:26:51.306Z,3.20
2023-02-19T00:29:22.687Z,1.80
2023-02-19T00:31:51.098Z,3.80
2023-02-19T00:34:20.154Z,1.67
2023-02-19T00:36:48.602Z,1.70
2023-02-19T00:39:18.617Z,1.80
2023-02-19T00:41:47.526Z,2.20
2023-02-19T00:44:16.564Z,2.20
2023-02-19T00:46:48.622Z,2.17
2023-02-19T00:49:21.401Z,1.37
2023-02-19T00:51:50.967Z,2.30
2023-02-19T00:54:20.310Z,2.33
2023-02-19T00:56:48.710Z,2.03
2023-02-19T00:59:17.642Z,2.30
2023-02-19T01:01:47.451Z,2.60
2023-02-19T01:04:16.587Z,2.20
2023-02-19T01:06:44.774Z,1.80
2023-02-19T01:09:13.638Z,3.40
2023-02-19T01:11:42.755Z,2.50
2023-02-19T01:14:11.682Z,2.40
2023-02-19T01:16:40.102Z,2.40
2023-02-19T01:19:10.072Z,2.53
2023-02-19T01:21:38.297Z,3.50
2023-02-19T01:24:07.072Z,2.37
2023-02-19T01:26:35.506Z,2.17
2023-02-19T01:29:04.814Z,3.20
2023-02-19T01:31:33.446Z,3.13
2023-02-19T01:34:05.340Z,3.37
2023-02-19T01:36:36.961Z,3.03
2023-02-19T01:39:07.554Z,2.67
2023-02-19T01:41:40.534Z,4.63
2023-02-19T01:44:48.977Z,2.50
2023-02-19T01:47:20.214Z,2.63
2023-02-19T01:49:54.465Z,3.50
2023-02-19T01:52:29.100Z,2.50
2023-02-19T01:54:59.191Z,2.50
2023-02-19T01:57:33.263Z,3.10
2023-02-19T02:00:09.415Z,2.97
2023-02-19T02:02:46.884Z,2.60
2023-02-19T02:05:24.192Z,2.63
2023-02-19T02:08:10.630Z,2.80
2023-02-19T02:10:45.532Z,3.47
2023-02-19T02:13:13.902Z,3.70
2023-02-19T02:15:53.756Z,3.30
2023-02-19T02:18:35.584Z,5.70
2023-02-19T02:21:41.759Z,3.43
2023-02-19T02:24:42.864Z,3.60
2023-02-19T02:27:52.276Z,3.33
2023-02-19T02:30:35.316Z,3.50
2023-02-19T02:33:15.815Z,3.30
2023-02-19T02:35:49.516Z,3.20
2023-02-19T02:38:22.138Z,2.97
2023-02-19T02:40:50.465Z,3.57
2023-02-19T02:43:19.036Z,2.77
2023-02-19T02:45:48.907Z,3.10
2023-02-19T02:48:37.097Z,2.90
2023-02-19T02:51:15.469Z,3.23
2023-02-19T02:54:11.601Z,2.90
2023-02-19T02:56:42.488Z,2.90
2023-02-19T02:59:15.046Z,2.77
2023-02-19T03:02:06.105Z,2.60
2023-02-19T03:05:03.587Z,2.30
2023-02-19T03:07:37.626Z,3.20
2023-02-19T03:10:10.035Z,2.77
2023-02-19T03:12:57.839Z,2.70
2023-02-19T03:16:30.876Z,2.90
2023-02-19T03:19:21.297Z,2.53
2023-02-19T03:21:56.846Z,2.40
2023-02-19T03:24:47.104Z,2.40
2023-02-19T03:27:20.423Z,2.23
2023-02-19T03:29:56.498Z,2.10
2023-02-19T03:32:31.473Z,2.50
2023-02-19T03:35:07.629Z,2.40
2023-02-19T03:37:42.593Z,1.83
2023-02-19T03:40:12.001Z,1.67
2023-02-19T03:42:53.111Z,1.73
2023-02-19T03:45:33.678Z,2.60
2023-02-19T03:48:20.238Z,1.70
2023-02-19T03:50:59.715Z,1.77
2023-02-19T03:53:58.301Z,1.80
2023-02-19T03:56:36.675Z,1.70
2023-02-19T03:59:14.089Z,2.20
2023-02-19T04:01:48.064Z,3.90
2023-02-19T04:04:21.365Z,1.20
2023-02-19T04:06:55.939Z,1.30
2023-02-19T04:09:26.698Z,1.20
2023-02-19T04:12:02.555Z,0.70
2023-02-19T04:14:37.585Z,0.80
2023-02-19T04:17:15.085Z,1.30
2023-02-19T04:19:44.294Z,1.07
2023-02-19T04:22:14.445Z,0.50
2023-02-19T04:24:48.108Z,0.73
2023-02-19T04:27:17.098Z,1.07
2023-02-19T04:29:45.457Z,1.80
2023-02-19T04:32:15.163Z,0.40
2023-02-19T04:34:43.373Z,0.67
2023-02-19T04:37:13.538Z,2.30
2023-02-19T04:39:41.965Z,0.73
2023-02-19T04:42:12.514Z,0.40
2023-02-19T04:44:40.711Z,0.63
2023-02-19T04:47:09.542Z,0.60
2023-02-19T04:49:37.758Z,0.50
2023-02-19T04:52:07.098Z,0.70
2023-02-19T04:54:36.758Z,0.53
2023-02-19T04:57:05.079Z,0.70
2023-02-19T04:59:33.741Z,0.63
2023-02-19T05:02:01.967Z,0.70
2023-02-19T05:04:30.203Z,0.57
2023-02-19T05:06:58.425Z,1.00
2023-02-19T05:09:26.900Z,0.73
2023-02-19T05:11:56.415Z,0.50
2023-02-19T05:14:24.757Z,0.73
2023-02-19T05:16:52.911Z,0.70
2023-02-19T05:19:21.230Z,0.70
2023-02-19T05:21:49.350Z,0.70
2023-02-19T05:24:17.658Z,1.20
2023-02-19T05:26:45.887Z,0.70
2023-02-19T05:29:15.425Z,0.80
2023-02-19T05:31:43.972Z,0.60
2023-02-19T05:34:12.383Z,0.70
2023-02-19T05:36:41.591Z,0.80
2023-02-19T05:39:12.905Z,0.50
2023-02-19T05:41:41.271Z,0.60
2023-02-19T05:44:12.147Z,0.60
2023-02-19T05:46:41.873Z,0.60
2023-02-19T05:49:10.067Z,0.50
2023-02-19T05:51:38.253Z,0.60
2023-02-19T05:54:07.005Z,0.60
2023-02-19T05:56:37.436Z,0.50
2023-02-19T05:59:08.505Z,1.27
2023-02-19T06:01:37.675Z,0.60
2023-02-19T06:04:07.399Z,0.40
2023-02-19T06:06:35.593Z,0.97
2023-02-19T06:09:03.930Z,0.70
2023-02-19T06:11:32.442Z,0.50
2023-02-19T06:14:00.730Z,0.90
2023-02-19T06:16:29.309Z,0.77
2023-02-19T06:18:57.659Z,0.50
2023-02-19T06:21:27.339Z,1.37
2023-02-19T06:23:56.066Z,0.40
2023-02-19T06:26:26.222Z,0.40
2023-02-19T06:28:55.418Z,0.50
2023-02-19T06:31:24.439Z,0.70
2023-02-19T06:33:52.857Z,0.60
2023-02-19T06:36:22.580Z,1.20
2023-02-19T06:38:52.660Z,0.67
2023-02-19T06:41:23.111Z,0.60
2023-02-19T06:43:51.705Z,0.60
2023-02-19T06:46:20.204Z,0.60
2023-02-19T06:48:48.567Z,0.50
2023-02-19T06:51:22.646Z,1.17
2023-02-19T06:53:54.288Z,0.70
2023-02-19T06:56:26.042Z,0.50
2023-02-19T06:58:55.829Z,0.50
2023-02-19T07:01:24.895Z,0.50
2023-02-19T07:03:53.544Z,1.20
2023-02-19T07:06:22.898Z,1.07
2023-02-19T07:08:54.110Z,0.50
2023-02-19T07:11:22.669Z,0.80
2023-02-19T07:13:56.676Z,0.70
2023-02-19T07:16:26.229Z,0.80
2023-02-19T07:18:56.862Z,0.90
2023-02-19T07:21:25.964Z,1.00
2023-02-19T07:23:56.113Z,0.83
2023-02-19T07:26:25.082Z,1.97
2023-02-19T07:28:53.812Z,1.00
2023-02-19T07:31:24.594Z,1.83
2023-02-19T07:33:53.479Z,1.00
2023-02-19T07:36:23.952Z,1.17
2023-02-19T07:39:10.098Z,1.37
2023-02-19T07:41:44.488Z,2.50
2023-02-19T07:44:24.376Z,2.40
2023-02-19T07:46:52.637Z,0.73
2023-02-19T07:49:20.930Z,1.17
2023-02-19T07:51:49.349Z,1.23
2023-02-19T07:54:21.735Z,1.10
2023-02-19T07:56:50.092Z,2.10
2023-02-19T07:59:19.568Z,1.10
2023-02-19T08:02:05.267Z,1.30
2023-02-19T08:04:40.535Z,1.20
2023-02-19T08:08:09.596Z,1.30
2023-02-19T08:10:56.997Z,1.70
2023-02-19T08:13:25.761Z,1.77
2023-02-19T08:16:07.468Z,1.37
2023-02-19T08:18:44.858Z,2.23
2023-02-19T11:16:14.880Z,6.80
2023-02-19T11:23:31.245Z,4.50
2023-02-19T11:34:35.233Z,2.43
2023-02-19T11:37:13.598Z,3.00
2023-02-19T11:39:46.978Z,4.17
2023-02-19T11:54:51.175Z,1.57
2023-02-19T12:05:39.165Z,8.20
2023-02-19T12:09:55.688Z,4.13
2023-02-19T12:12:47.796Z,1.77
2023-02-19T12:15:48.683Z,4.00
2023-02-19T12:18:55.204Z,3.13
2023-02-19T12:21:45.713Z,2.27
2023-02-19T12:25:14.223Z,3.33
2023-02-19T12:28:01.993Z,4.07
2023-02-19T12:31:53.943Z,2.50
2023-02-19T12:38:06.752Z,4.00
2023-02-19T12:40:52.058Z,1.70
2023-02-19T12:43:24.131Z,3.20
2023-02-19T12:49:47.157Z,3.23
2023-02-19T12:52:22.191Z,3.30
2023-02-19T12:55:29.212Z,1.80
2023-02-19T12:58:01.536Z,1.63
2023-02-19T13:00:39.613Z,2.00
2023-02-19T13:03:21.180Z,2.40
2023-02-19T13:05:54.320Z,3.37
2023-02-19T13:08:29.136Z,3.57
2023-02-19T13:11:05.369Z,2.30
2023-02-19T13:13:42.343Z,3.90
2023-02-19T13:16:18.745Z,1.40
2023-02-19T13:18:50.969Z,2.10
2023-02-19T13:21:36.288Z,1.70
2023-02-19T13:24:11.638Z,2.70
2023-02-19T13:26:56.447Z,1.87
2023-02-19T13:29:46.406Z,2.70
2023-02-19T13:32:33.249Z,3.77
2023-02-19T13:35:26.551Z,3.33
2023-02-19T13:41:50.680Z,4.90
2023-02-19T13:47:38.962Z,2.20
2023-02-19T13:48:00.944Z,3.73
2023-02-19T13:50:31.840Z,3.77
2023-02-19T13:53:57.747Z,2.60
2023-02-19T13:56:42.679Z,2.07
2023-02-19T14:02:39.452Z,1.90
2023-02-19T14:12:24.943Z,7.00
2023-02-19T14:14:54.842Z,5.93
2023-02-19T14:17:29.369Z,2.40
2023-02-19T14:35:47.699Z,3.90
2023-02-19T14:38:23.017Z,3.80
2023-02-19T14:40:53.646Z,3.20
2023-02-19T14:43:27.075Z,1.90
2023-02-19T14:46:56.040Z,8.97
2023-02-19T14:49:31.019Z,3.57
2023-02-19T14:52:06.071Z,3.23
2023-02-19T14:54:42.458Z,10.67
2023-02-19T14:57:17.281Z,4.00
2023-02-19T14:59:55.896Z,4.47
2023-02-19T15:02:25.913Z,7.33
2023-02-19T15:05:02.432Z,2.60
2023-02-19T15:07:34.866Z,3.23
2023-02-19T15:10:06.017Z,5.57
2023-02-19T15:12:45.766Z,4.23
2023-02-19T15:15:21.806Z,3.63
2023-02-19T15:17:54.048Z,4.77
2023-02-19T15:20:27.643Z,4.47
2023-02-19T15:22:58.413Z,3.43
2023-02-19T15:25:44.462Z,1.70
2023-02-19T15:28:34.287Z,1.73
2023-02-19T15:31:16.519Z,2.20
2023-02-19T15:33:52.168Z,3.30
2023-02-19T15:36:30.162Z,3.63
2023-02-19T15:39:03.084Z,4.10
2023-02-19T15:41:49.869Z,6.70
2023-02-19T15:44:35.493Z,9.20
2023-02-19T15:47:21.587Z,10.80
2023-02-19T15:49:57.725Z,14.60
2023-02-19T15:52:37.400Z,12.87
2023-02-19T15:55:28.321Z,5.03
2023-02-19T15:58:08.687Z,2.93
2023-02-19T16:00:43.037Z,11.00
2023-02-19T16:03:19.777Z,2.40
2023-02-19T16:05:54.638Z,5.97
2023-02-19T16:08:31.022Z,3.60
2023-02-19T16:11:02.862Z,4.60
2023-02-19T16:13:33.910Z,5.23
2023-02-19T16:16:16.443Z,3.90
2023-02-19T16:18:54.938Z,7.37
2023-02-19T16:21:27.251Z,2.80
2023-02-19T16:24:05.629Z,4.33
2023-02-19T16:26:42.368Z,3.50
2023-02-19T16:29:25.261Z,4.70
2023-02-19T16:31:57.487Z,3.80
2023-02-19T16:34:35.307Z,3.00
2023-02-19T16:37:06.607Z,6.30
2023-02-19T16:39:35.145Z,1.40
2023-02-19T16:42:20.559Z,4.87
2023-02-19T16:44:49.508Z,4.00
2023-02-19T16:47:32.530Z,3.93
2023-02-19T16:50:07.950Z,2.30
2023-02-19T16:52:38.965Z,8.63
2023-02-19T16:55:14.833Z,3.60
2023-02-19T16:57:44.907Z,7.93
2023-02-19T17:00:19.869Z,6.47
2023-02-19T17:02:49.005Z,7.67
2023-02-19T17:05:18.332Z,4.70
2023-02-19T17:07:47.105Z,5.60
2023-02-19T17:10:18.054Z,7.30
2023-02-19T17:12:47.848Z,6.00
2023-02-19T17:15:16.402Z,4.60
2023-02-19T17:17:44.800Z,6.70
2023-02-19T17:20:24.047Z,6.20
2023-02-19T17:22:52.472Z,5.20
2023-02-19T17:25:21.400Z,7.47
2023-02-19T17:27:51.367Z,4.90
2023-02-19T17:30:48.687Z,5.53
2023-02-19T17:33:16.891Z,4.13
2023-02-19T17:35:45.892Z,8.23
2023-02-19T17:38:31.389Z,4.97
2023-02-19T17:41:14.268Z,10.83
2023-02-19T17:43:43.820Z,2.77
2023-02-19T17:46:16.608Z,7.93
2023-02-19T17:49:04.880Z,5.07
2023-02-19T17:51:49.678Z,7.40
2023-02-19T17:54:18.108Z,3.37
2023-02-19T17:56:55.376Z,7.80
2023-02-19T17:59:25.468Z,5.00
2023-02-19T18:01:54.079Z,6.03
2023-02-19T18:04:22.374Z,2.77
2023-02-19T18:06:50.521Z,7.20
2023-02-19T18:09:19.414Z,7.67
2023-02-19T18:11:47.728Z,8.33
2023-02-19T18:14:16.119Z,6.53
2023-02-19T18:16:50.674Z,4.33
2023-02-19T18:19:19.982Z,4.70
2023-02-19T18:21:48.542Z,5.40
2023-02-19T18:24:16.876Z,3.10
2023-02-19T18:26:46.251Z,8.33
2023-02-19T18:35:40.145Z,5.40
2023-02-19T18:38:08.703Z,6.00
2023-02-19T18:40:36.945Z,5.00
2023-02-19T18:43:06.509Z,22.83
2023-02-19T18:45:37.479Z,7.50
2023-02-19T18:48:08.389Z,7.43
2023-02-19T19:02:07.685Z,4.40
2023-02-19T19:07:22.959Z,11.47
2023-02-19T19:09:51.211Z,10.63
2023-02-19T19:12:19.358Z,6.60
2023-02-19T19:15:31.808Z,5.27
2023-02-19T19:21:09.643Z,5.40
2023-02-19T19:26:23.444Z,14.97
2023-02-19T19:29:12.445Z,9.80
2023-02-19T19:34:34.998Z,5.80
2023-02-19T19:37:04.710Z,6.37
2023-02-19T19:39:44.609Z,5.40
2023-02-19T19:42:15.447Z,7.10
2023-02-19T20:25:07.971Z,14.87
2023-02-19T21:08:25.278Z,7.77
2023-02-19T21:10:55.014Z,10.47
2023-02-19T21:13:24.384Z,6.80
2023-02-19T21:35:46.995Z,9.07
2023-02-19T21:38:15.694Z,15.23
2023-02-19T21:40:43.892Z,8.73
2023-02-19T21:43:14.603Z,4.40
